sensor_id;sensor_type;location;lat;lon;timestamp;temperature;humidity
34153;DHT22;20426;48.372;10.888;2022-12-18T00:00:05;-4.20;99.90
34153;DHT22;20426;48.372;10.888;2022-12-18T00:00:40;-4.20;99.90
34153;DHT22;20426;48.372;10.888;2022-12-18T00:01:27;-4.10;99.90
34153;DHT22;20426;48.372;10.888;2022-12-18T00:01:58;-4.20;99.90
34153;DHT22;20426;48.372;10.888;2022-12-18T00:02:29;-4.20;99.90
34153;DHT22;20426;48.372;10.888;2022-12-18T00:03:00;-4.20;99.90
34153;DHT22;20426;48.372;10.888;2022-12-18T00:03:34;-4.20;99.90
34153;DHT22;20426;48.372;10.888;2022-12-18T00:04:06;-4.20;99.90
34153;DHT22;20426;48.372;10.888;2022-12-18T00:04:37;-4.20;99.90
34153;DHT22;20426;48.372;10.888;2022-12-18T00:05:07;-4.20;99.90
34153;DHT22;20426;48.372;10.888;2022-12-18T00:05:46;-4.20;99.90
34153;DHT22;20426;48.372;10.888;2022-12-18T00:06:19;-4.20;99.90
34153;DHT22;20426;48.372;10.888;2022-12-18T00:06:50;-4.30;99.90
34153;DHT22;20426;48.372;10.888;2022-12-18T00:07:21;-4.30;99.90
34153;DHT22;20426;48.372;10.888;2022-12-18T00:07:51;-4.30;99.90
34153;DHT22;20426;48.372;10.888;2022-12-18T00:08:22;-4.30;99.90
34153;DHT22;20426;48.372;10.888;2022-12-18T00:08:55;-4.30;99.90
34153;DHT22;20426;48.372;10.888;2022-12-18T00:09:26;-4.30;99.90
34153;DHT22;20426;48.372;10.888;2022-12-18T00:09:56;-4.30;99.90
34153;DHT22;20426;48.372;10.888;2022-12-18T00:10:28;-4.30;99.90
34153;DHT22;20426;48.372;10.888;2022-12-18T00:11:06;-4.30;99.90
34153;DHT22;20426;48.372;10.888;2022-12-18T00:11:38;-4.30;99.90
34153;DHT22;20426;48.372;10.888;2022-12-18T00:12:08;-4.30;99.90
34153;DHT22;20426;48.372;10.888;2022-12-18T00:12:39;-4.30;99.90
34153;DHT22;20426;48.372;10.888;2022-12-18T00:13:11;-4.30;99.90
34153;DHT22;20426;48.372;10.888;2022-12-18T00:13:43;-4.30;99.90
34153;DHT22;20426;48.372;10.888;2022-12-18T00:14:14;-4.30;99.90
34153;DHT22;20426;48.372;10.888;2022-12-18T00:14:45;-4.30;99.90
34153;DHT22;20426;48.372;10.888;2022-12-18T00:15:16;-4.30;99.90
34153;DHT22;20426;48.372;10.888;2022-12-18T00:15:46;-4.30;99.90
34153;DHT22;20426;48.372;10.888;2022-12-18T00:16:19;-4.30;99.90
34153;DHT22;20426;48.372;10.888;2022-12-18T00:16:51;-4.40;99.90
34153;DHT22;20426;48.372;10.888;2022-12-18T00:17:21;-4.30;99.90
34153;DHT22;20426;48.372;10.888;2022-12-18T00:17:52;-4.30;99.90
34153;DHT22;20426;48.372;10.888;2022-12-18T00:18:23;-4.30;99.90
34153;DHT22;20426;48.372;10.888;2022-12-18T00:18:55;-4.30;99.90
34153;DHT22;20426;48.372;10.888;2022-12-18T00:19:27;-4.30;99.90
34153;DHT22;20426;48.372;10.888;2022-12-18T00:19:57;-4.30;99.90
34153;DHT22;20426;48.372;10.888;2022-12-18T00:20:28;-4.30;99.90
34153;DHT22;20426;48.372;10.888;2022-12-18T00:21:01;-4.20;99.90
34153;DHT22;20426;48.372;10.888;2022-12-18T00:21:33;-4.20;99.90
34153;DHT22;20426;48.372;10.888;2022-12-18T00:22:04;-4.30;99.90
34153;DHT22;20426;48.372;10.888;2022-12-18T00:22:35;-4.30;99.90
34153;DHT22;20426;48.372;10.888;2022-12-18T00:23:06;-4.30;99.90
34153;DHT22;20426;48.372;10.888;2022-12-18T00:23:38;-4.30;99.90
34153;DHT22;20426;48.372;10.888;2022-12-18T00:24:10;-4.30;99.90
34153;DHT22;20426;48.372;10.888;2022-12-18T00:24:40;-4.30;99.90
34153;DHT22;20426;48.372;10.888;2022-12-18T00:25:11;-4.30;99.90
34153;DHT22;20426;48.372;10.888;2022-12-18T00:25:42;-4.30;99.90
34153;DHT22;20426;48.372;10.888;2022-12-18T00:26:17;-4.30;99.90
34153;DHT22;20426;48.372;10.888;2022-12-18T00:26:49;-4.30;99.90
34153;DHT22;20426;48.372;10.888;2022-12-18T00:27:19;-4.30;99.90
34153;DHT22;20426;48.372;10.888;2022-12-18T00:27:50;-4.30;99.90
34153;DHT22;20426;48.372;10.888;2022-12-18T00:28:21;-4.30;99.90
34153;DHT22;20426;48.372;10.888;2022-12-18T00:28:52;-4.30;99.90
34153;DHT22;20426;48.372;10.888;2022-12-18T00:29:23;-4.30;99.90
34153;DHT22;20426;48.372;10.888;2022-12-18T00:29:53;-4.30;99.90
34153;DHT22;20426;48.372;10.888;2022-12-18T00:30:24;-4.30;99.90
34153;DHT22;20426;48.372;10.888;2022-12-18T00:31:05;-4.30;99.90
34153;DHT22;20426;48.372;10.888;2022-12-18T00:31:37;-4.30;99.90
34153;DHT22;20426;48.372;10.888;2022-12-18T00:32:08;-4.30;99.90
34153;DHT22;20426;48.372;10.888;2022-12-18T00:32:39;-4.30;99.90
34153;DHT22;20426;48.372;10.888;2022-12-18T00:33:10;-4.30;99.90
34153;DHT22;20426;48.372;10.888;2022-12-18T00:33:41;-4.30;99.90
34153;DHT22;20426;48.372;10.888;2022-12-18T00:34:12;-4.30;99.90
34153;DHT22;20426;48.372;10.888;2022-12-18T00:34:43;-4.30;99.90
34153;DHT22;20426;48.372;10.888;2022-12-18T00:35:14;-4.30;99.90
34153;DHT22;20426;48.372;10.888;2022-12-18T00:35:45;-4.30;99.90
34153;DHT22;20426;48.372;10.888;2022-12-18T00:36:18;-4.30;99.90
34153;DHT22;20426;48.372;10.888;2022-12-18T00:36:50;-4.30;99.90
34153;DHT22;20426;48.372;10.888;2022-12-18T00:37:20;-4.30;99.90
34153;DHT22;20426;48.372;10.888;2022-12-18T00:37:51;-4.30;99.90
34153;DHT22;20426;48.372;10.888;2022-12-18T00:38:22;-4.20;99.90
34153;DHT22;20426;48.372;10.888;2022-12-18T00:38:56;-4.30;99.90
34153;DHT22;20426;48.372;10.888;2022-12-18T00:39:27;-4.30;99.90
34153;DHT22;20426;48.372;10.888;2022-12-18T00:39:58;-4.20;99.90
34153;DHT22;20426;48.372;10.888;2022-12-18T00:40:28;-4.30;99.90
34153;DHT22;20426;48.372;10.888;2022-12-18T00:40:59;-4.20;99.90
34153;DHT22;20426;48.372;10.888;2022-12-18T00:41:30;-4.20;99.90
34153;DHT22;20426;48.372;10.888;2022-12-18T00:42:20;-4.20;99.90
34153;DHT22;20426;48.372;10.888;2022-12-18T00:43:09;-4.20;99.90
34153;DHT22;20426;48.372;10.888;2022-12-18T00:43:40;-4.10;99.90
34153;DHT22;20426;48.372;10.888;2022-12-18T00:44:13;-4.10;99.90
34153;DHT22;20426;48.372;10.888;2022-12-18T00:44:44;-4.20;99.90
34153;DHT22;20426;48.372;10.888;2022-12-18T00:45:15;-4.20;99.90
34153;DHT22;20426;48.372;10.888;2022-12-18T00:45:45;-4.10;99.90
34153;DHT22;20426;48.372;10.888;2022-12-18T00:46:16;-4.20;99.90
34153;DHT22;20426;48.372;10.888;2022-12-18T00:46:47;-4.10;99.90
34153;DHT22;20426;48.372;10.888;2022-12-18T00:47:18;-4.10;99.90
34153;DHT22;20426;48.372;10.888;2022-12-18T00:47:49;-4.20;99.90
34153;DHT22;20426;48.372;10.888;2022-12-18T00:48:20;-4.10;99.90
34153;DHT22;20426;48.372;10.888;2022-12-18T00:48:50;-4.10;99.90
34153;DHT22;20426;48.372;10.888;2022-12-18T00:49:21;-4.10;99.90
34153;DHT22;20426;48.372;10.888;2022-12-18T00:49:52;-4.20;99.90
34153;DHT22;20426;48.372;10.888;2022-12-18T00:50:24;-4.10;99.90
34153;DHT22;20426;48.372;10.888;2022-12-18T00:50:56;-4.20;99.90
34153;DHT22;20426;48.372;10.888;2022-12-18T00:51:27;-4.10;99.90
34153;DHT22;20426;48.372;10.888;2022-12-18T00:51:57;-4.10;99.90
34153;DHT22;20426;48.372;10.888;2022-12-18T00:52:28;-4.10;99.90
34153;DHT22;20426;48.372;10.888;2022-12-18T00:52:59;-4.10;99.90
34153;DHT22;20426;48.372;10.888;2022-12-18T00:53:29;-4.10;99.90
34153;DHT22;20426;48.372;10.888;2022-12-18T00:54:00;-4.00;99.90
34153;DHT22;20426;48.372;10.888;2022-12-18T00:54:31;-4.00;99.90
34153;DHT22;20426;48.372;10.888;2022-12-18T00:55:02;-3.90;99.90
34153;DHT22;20426;48.372;10.888;2022-12-18T00:55:32;-3.90;99.90
34153;DHT22;20426;48.372;10.888;2022-12-18T00:56:03;-4.00;99.90
34153;DHT22;20426;48.372;10.888;2022-12-18T00:56:36;-4.00;99.90
34153;DHT22;20426;48.372;10.888;2022-12-18T00:57:07;-4.00;99.90
34153;DHT22;20426;48.372;10.888;2022-12-18T00:57:38;-4.00;99.90
34153;DHT22;20426;48.372;10.888;2022-12-18T00:58:14;-4.00;99.90
34153;DHT22;20426;48.372;10.888;2022-12-18T00:58:45;-4.00;99.90
34153;DHT22;20426;48.372;10.888;2022-12-18T00:59:18;-4.00;99.90
34153;DHT22;20426;48.372;10.888;2022-12-18T00:59:49;-4.00;99.90
34153;DHT22;20426;48.372;10.888;2022-12-18T01:00:20;-4.00;99.90
34153;DHT22;20426;48.372;10.888;2022-12-18T01:00:51;-4.00;99.90
34153;DHT22;20426;48.372;10.888;2022-12-18T01:01:22;-4.00;99.90
34153;DHT22;20426;48.372;10.888;2022-12-18T01:01:52;-4.00;99.90
34153;DHT22;20426;48.372;10.888;2022-12-18T01:02:23;-4.00;99.90
34153;DHT22;20426;48.372;10.888;2022-12-18T01:02:54;-4.00;99.90
34153;DHT22;20426;48.372;10.888;2022-12-18T01:03:25;-4.00;99.90
34153;DHT22;20426;48.372;10.888;2022-12-18T01:03:55;-4.00;99.90
34153;DHT22;20426;48.372;10.888;2022-12-18T01:04:26;-4.00;99.90
34153;DHT22;20426;48.372;10.888;2022-12-18T01:04:57;-4.00;99.90
34153;DHT22;20426;48.372;10.888;2022-12-18T01:05:28;-4.00;99.90
34153;DHT22;20426;48.372;10.888;2022-12-18T01:05:58;-4.00;99.90
34153;DHT22;20426;48.372;10.888;2022-12-18T01:06:29;-4.00;99.90
34153;DHT22;20426;48.372;10.888;2022-12-18T01:07:00;-4.00;99.90
34153;DHT22;20426;48.372;10.888;2022-12-18T01:07:31;-4.00;99.90
34153;DHT22;20426;48.372;10.888;2022-12-18T01:08:02;-4.00;99.90
34153;DHT22;20426;48.372;10.888;2022-12-18T01:08:34;-3.90;99.90
34153;DHT22;20426;48.372;10.888;2022-12-18T01:09:05;-4.00;99.90
34153;DHT22;20426;48.372;10.888;2022-12-18T01:09:35;-4.00;99.90
34153;DHT22;20426;48.372;10.888;2022-12-18T01:10:07;-4.00;99.90
34153;DHT22;20426;48.372;10.888;2022-12-18T01:10:42;-4.00;99.90
34153;DHT22;20426;48.372;10.888;2022-12-18T01:11:16;-4.00;99.90
34153;DHT22;20426;48.372;10.888;2022-12-18T01:11:47;-4.00;99.90
34153;DHT22;20426;48.372;10.888;2022-12-18T01:12:17;-4.00;99.90
34153;DHT22;20426;48.372;10.888;2022-12-18T01:12:48;-4.00;99.90
34153;DHT22;20426;48.372;10.888;2022-12-18T01:13:19;-4.10;99.90
34153;DHT22;20426;48.372;10.888;2022-12-18T01:13:52;-4.00;99.90
34153;DHT22;20426;48.372;10.888;2022-12-18T01:14:23;-4.00;99.90
34153;DHT22;20426;48.372;10.888;2022-12-18T01:14:53;-4.00;99.90
34153;DHT22;20426;48.372;10.888;2022-12-18T01:15:24;-4.00;99.90
34153;DHT22;20426;48.372;10.888;2022-12-18T01:15:55;-4.00;99.90
34153;DHT22;20426;48.372;10.888;2022-12-18T01:16:25;-4.00;99.90
34153;DHT22;20426;48.372;10.888;2022-12-18T01:16:56;-4.00;99.90
34153;DHT22;20426;48.372;10.888;2022-12-18T01:17:27;-4.00;99.90
34153;DHT22;20426;48.372;10.888;2022-12-18T01:17:58;-4.00;99.90
34153;DHT22;20426;48.372;10.888;2022-12-18T01:18:28;-4.00;99.90
34153;DHT22;20426;48.372;10.888;2022-12-18T01:18:59;-4.00;99.90
34153;DHT22;20426;48.372;10.888;2022-12-18T01:19:30;-4.00;99.90
34153;DHT22;20426;48.372;10.888;2022-12-18T01:20:01;-4.00;99.90
34153;DHT22;20426;48.372;10.888;2022-12-18T01:20:32;-4.00;99.90
34153;DHT22;20426;48.372;10.888;2022-12-18T01:21:11;-4.00;99.90
34153;DHT22;20426;48.372;10.888;2022-12-18T01:21:42;-4.10;99.90
34153;DHT22;20426;48.372;10.888;2022-12-18T01:22:13;-4.10;99.90
34153;DHT22;20426;48.372;10.888;2022-12-18T01:22:44;-4.10;99.90
34153;DHT22;20426;48.372;10.888;2022-12-18T01:23:14;-4.10;99.90
34153;DHT22;20426;48.372;10.888;2022-12-18T01:23:46;-4.10;99.90
34153;DHT22;20426;48.372;10.888;2022-12-18T01:24:17;-4.10;99.90
34153;DHT22;20426;48.372;10.888;2022-12-18T01:24:47;-4.10;99.90
34153;DHT22;20426;48.372;10.888;2022-12-18T01:25:18;-4.10;99.90
34153;DHT22;20426;48.372;10.888;2022-12-18T01:25:49;-4.20;99.90
34153;DHT22;20426;48.372;10.888;2022-12-18T01:26:20;-4.10;99.90
34153;DHT22;20426;48.372;10.888;2022-12-18T01:26:51;-4.10;99.90
34153;DHT22;20426;48.372;10.888;2022-12-18T01:27:22;-4.10;99.90
34153;DHT22;20426;48.372;10.888;2022-12-18T01:27:52;-4.20;99.90
34153;DHT22;20426;48.372;10.888;2022-12-18T01:28:23;-4.10;99.90
34153;DHT22;20426;48.372;10.888;2022-12-18T01:28:55;-4.20;99.90
34153;DHT22;20426;48.372;10.888;2022-12-18T01:29:26;-4.10;99.90
34153;DHT22;20426;48.372;10.888;2022-12-18T01:29:57;-4.20;99.90
34153;DHT22;20426;48.372;10.888;2022-12-18T01:30:28;-4.20;99.90
34153;DHT22;20426;48.372;10.888;2022-12-18T01:31:10;-4.20;99.90
34153;DHT22;20426;48.372;10.888;2022-12-18T01:31:41;-4.20;99.90
34153;DHT22;20426;48.372;10.888;2022-12-18T01:32:12;-4.20;99.90
34153;DHT22;20426;48.372;10.888;2022-12-18T01:32:42;-4.20;99.90
34153;DHT22;20426;48.372;10.888;2022-12-18T01:33:13;-4.20;99.90
34153;DHT22;20426;48.372;10.888;2022-12-18T01:33:44;-4.20;99.90
34153;DHT22;20426;48.372;10.888;2022-12-18T01:34:15;-4.30;99.90
34153;DHT22;20426;48.372;10.888;2022-12-18T01:34:46;-4.30;99.90
34153;DHT22;20426;48.372;10.888;2022-12-18T01:35:16;-4.40;99.90
34153;DHT22;20426;48.372;10.888;2022-12-18T01:35:47;-4.40;99.90
34153;DHT22;20426;48.372;10.888;2022-12-18T01:36:26;-4.40;99.90
34153;DHT22;20426;48.372;10.888;2022-12-18T01:36:57;-4.40;99.90
34153;DHT22;20426;48.372;10.888;2022-12-18T01:37:28;-4.40;99.90
34153;DHT22;20426;48.372;10.888;2022-12-18T01:37:59;-4.40;99.90
34153;DHT22;20426;48.372;10.888;2022-12-18T01:38:30;-4.40;99.90
34153;DHT22;20426;48.372;10.888;2022-12-18T01:39:05;-4.40;99.90
34153;DHT22;20426;48.372;10.888;2022-12-18T01:39:36;-4.40;99.90
34153;DHT22;20426;48.372;10.888;2022-12-18T01:40:07;-4.40;99.90
34153;DHT22;20426;48.372;10.888;2022-12-18T01:40:38;-4.40;99.90
34153;DHT22;20426;48.372;10.888;2022-12-18T01:41:09;-4.30;99.90
34153;DHT22;20426;48.372;10.888;2022-12-18T01:41:41;-4.30;99.90
34153;DHT22;20426;48.372;10.888;2022-12-18T01:42:31;-4.30;99.90
34153;DHT22;20426;48.372;10.888;2022-12-18T01:43:01;-4.40;99.90
34153;DHT22;20426;48.372;10.888;2022-12-18T01:45:30;-4.40;99.90
34153;DHT22;20426;48.372;10.888;2022-12-18T01:46:01;-4.50;99.90
34153;DHT22;20426;48.372;10.888;2022-12-18T01:46:32;-4.50;99.90
34153;DHT22;20426;48.372;10.888;2022-12-18T01:47:03;-4.50;99.90
34153;DHT22;20426;48.372;10.888;2022-12-18T01:47:43;-4.60;99.90
34153;DHT22;20426;48.372;10.888;2022-12-18T01:48:14;-4.60;99.90
34153;DHT22;20426;48.372;10.888;2022-12-18T01:48:48;-4.60;99.90
34153;DHT22;20426;48.372;10.888;2022-12-18T01:49:20;-4.60;99.90
34153;DHT22;20426;48.372;10.888;2022-12-18T01:49:51;-4.60;99.90
34153;DHT22;20426;48.372;10.888;2022-12-18T01:50:32;-4.60;99.90
34153;DHT22;20426;48.372;10.888;2022-12-18T01:51:06;-4.60;99.90
34153;DHT22;20426;48.372;10.888;2022-12-18T01:51:38;-4.60;99.90
34153;DHT22;20426;48.372;10.888;2022-12-18T01:52:08;-4.60;99.90
34153;DHT22;20426;48.372;10.888;2022-12-18T01:52:41;-4.60;99.90
34153;DHT22;20426;48.372;10.888;2022-12-18T01:53:17;-4.50;99.90
34153;DHT22;20426;48.372;10.888;2022-12-18T01:53:48;-4.50;99.90
34153;DHT22;20426;48.372;10.888;2022-12-18T01:54:19;-4.40;99.90
34153;DHT22;20426;48.372;10.888;2022-12-18T01:54:50;-4.40;99.90
34153;DHT22;20426;48.372;10.888;2022-12-18T01:55:25;-4.40;99.90
34153;DHT22;20426;48.372;10.888;2022-12-18T01:55:57;-4.40;99.90
34153;DHT22;20426;48.372;10.888;2022-12-18T01:56:29;-4.40;99.90
34153;DHT22;20426;48.372;10.888;2022-12-18T01:57:00;-4.40;99.90
34153;DHT22;20426;48.372;10.888;2022-12-18T01:57:31;-4.50;99.90
34153;DHT22;20426;48.372;10.888;2022-12-18T01:58:03;-4.50;99.90
34153;DHT22;20426;48.372;10.888;2022-12-18T01:58:49;-4.50;99.90
34153;DHT22;20426;48.372;10.888;2022-12-18T01:59:20;-4.50;99.90
34153;DHT22;20426;48.372;10.888;2022-12-18T01:59:53;-4.50;99.90
34153;DHT22;20426;48.372;10.888;2022-12-18T02:00:25;-4.50;99.90
34153;DHT22;20426;48.372;10.888;2022-12-18T02:00:56;-4.50;99.90
34153;DHT22;20426;48.372;10.888;2022-12-18T02:01:29;-4.50;99.90
34153;DHT22;20426;48.372;10.888;2022-12-18T02:02:01;-4.50;99.90
34153;DHT22;20426;48.372;10.888;2022-12-18T02:02:32;-4.50;99.90
34153;DHT22;20426;48.372;10.888;2022-12-18T02:03:03;-4.60;99.90
34153;DHT22;20426;48.372;10.888;2022-12-18T02:03:34;-4.60;99.90
34153;DHT22;20426;48.372;10.888;2022-12-18T02:04:35;-4.60;99.90
34153;DHT22;20426;48.372;10.888;2022-12-18T02:05:06;-4.70;99.90
34153;DHT22;20426;48.372;10.888;2022-12-18T02:06:34;-4.70;99.90
34153;DHT22;20426;48.372;10.888;2022-12-18T02:08:18;-4.70;99.90
34153;DHT22;20426;48.372;10.888;2022-12-18T02:09:21;-4.70;99.90
34153;DHT22;20426;48.372;10.888;2022-12-18T02:11:11;-4.70;99.90
34153;DHT22;20426;48.372;10.888;2022-12-18T02:12:49;-4.80;99.90
34153;DHT22;20426;48.372;10.888;2022-12-18T02:17:22;-4.80;99.90
34153;DHT22;20426;48.372;10.888;2022-12-18T02:17:58;-4.80;99.90
34153;DHT22;20426;48.372;10.888;2022-12-18T02:18:36;-4.80;99.90
34153;DHT22;20426;48.372;10.888;2022-12-18T02:19:37;-4.80;99.90
34153;DHT22;20426;48.372;10.888;2022-12-18T02:21:12;-4.80;99.90
34153;DHT22;20426;48.372;10.888;2022-12-18T02:22:04;-4.80;99.90
34153;DHT22;20426;48.372;10.888;2022-12-18T02:23:03;-4.80;99.90
34153;DHT22;20426;48.372;10.888;2022-12-18T02:23:56;-4.90;99.90
34153;DHT22;20426;48.372;10.888;2022-12-18T02:25:05;-4.90;99.90
34153;DHT22;20426;48.372;10.888;2022-12-18T02:26:51;-4.90;99.90
34153;DHT22;20426;48.372;10.888;2022-12-18T02:27:27;-4.90;99.90
34153;DHT22;20426;48.372;10.888;2022-12-18T02:28:01;-4.80;99.90
34153;DHT22;20426;48.372;10.888;2022-12-18T02:28:43;-4.80;99.90
34153;DHT22;20426;48.372;10.888;2022-12-18T02:29:20;-4.80;99.90
34153;DHT22;20426;48.372;10.888;2022-12-18T02:29:54;-4.80;99.90
34153;DHT22;20426;48.372;10.888;2022-12-18T02:30:27;-4.80;99.90
34153;DHT22;20426;48.372;10.888;2022-12-18T02:31:01;-4.80;99.90
34153;DHT22;20426;48.372;10.888;2022-12-18T02:31:42;-4.80;99.90
34153;DHT22;20426;48.372;10.888;2022-12-18T02:32:22;-4.80;99.90
34153;DHT22;20426;48.372;10.888;2022-12-18T02:32:56;-4.80;99.90
34153;DHT22;20426;48.372;10.888;2022-12-18T02:33:28;-4.80;99.90
34153;DHT22;20426;48.372;10.888;2022-12-18T02:34:03;-4.80;99.90
34153;DHT22;20426;48.372;10.888;2022-12-18T02:34:37;-4.80;99.90
34153;DHT22;20426;48.372;10.888;2022-12-18T02:35:15;-4.80;99.90
34153;DHT22;20426;48.372;10.888;2022-12-18T02:35:47;-4.80;99.90
34153;DHT22;20426;48.372;10.888;2022-12-18T02:36:20;-4.80;99.90
34153;DHT22;20426;48.372;10.888;2022-12-18T02:36:52;-4.80;99.90
34153;DHT22;20426;48.372;10.888;2022-12-18T02:37:24;-4.80;99.90
34153;DHT22;20426;48.372;10.888;2022-12-18T02:37:58;-4.80;99.90
34153;DHT22;20426;48.372;10.888;2022-12-18T02:38:29;-4.80;99.90
34153;DHT22;20426;48.372;10.888;2022-12-18T02:39:02;-4.80;99.90
34153;DHT22;20426;48.372;10.888;2022-12-18T02:39:35;-4.80;99.90
34153;DHT22;20426;48.372;10.888;2022-12-18T02:40:08;-4.80;99.90
34153;DHT22;20426;48.372;10.888;2022-12-18T02:40:40;-4.80;99.90
34153;DHT22;20426;48.372;10.888;2022-12-18T02:41:13;-4.70;99.90
34153;DHT22;20426;48.372;10.888;2022-12-18T02:41:45;-4.80;99.90
34153;DHT22;20426;48.372;10.888;2022-12-18T02:42:18;-4.80;99.90
34153;DHT22;20426;48.372;10.888;2022-12-18T02:42:49;-4.80;99.90
34153;DHT22;20426;48.372;10.888;2022-12-18T02:43:20;-4.80;99.90
34153;DHT22;20426;48.372;10.888;2022-12-18T02:43:58;-4.80;99.90
34153;DHT22;20426;48.372;10.888;2022-12-18T02:44:29;-4.80;99.90
34153;DHT22;20426;48.372;10.888;2022-12-18T02:45:00;-4.80;99.90
34153;DHT22;20426;48.372;10.888;2022-12-18T02:45:31;-4.80;99.90
34153;DHT22;20426;48.372;10.888;2022-12-18T02:47:10;-4.80;99.90
34153;DHT22;20426;48.372;10.888;2022-12-18T02:47:46;-4.80;99.90
34153;DHT22;20426;48.372;10.888;2022-12-18T02:48:22;-4.80;99.90
34153;DHT22;20426;48.372;10.888;2022-12-18T02:49:01;-4.80;99.90
34153;DHT22;20426;48.372;10.888;2022-12-18T02:50:38;-4.80;99.90
34153;DHT22;20426;48.372;10.888;2022-12-18T02:51:29;-4.80;99.90
34153;DHT22;20426;48.372;10.888;2022-12-18T02:53:56;-4.70;99.90
34153;DHT22;20426;48.372;10.888;2022-12-18T02:56:46;-4.70;99.90
34153;DHT22;20426;48.372;10.888;2022-12-18T02:57:35;-4.70;99.90
34153;DHT22;20426;48.372;10.888;2022-12-18T02:59:13;-4.70;99.90
34153;DHT22;20426;48.372;10.888;2022-12-18T03:00:08;-4.70;99.90
34153;DHT22;20426;48.372;10.888;2022-12-18T03:00:59;-4.70;99.90
34153;DHT22;20426;48.372;10.888;2022-12-18T03:01:50;-4.60;99.90
34153;DHT22;20426;48.372;10.888;2022-12-18T03:02:54;-4.60;99.90
34153;DHT22;20426;48.372;10.888;2022-12-18T03:03:34;-4.70;99.90
34153;DHT22;20426;48.372;10.888;2022-12-18T03:04:14;-4.70;99.90
34153;DHT22;20426;48.372;10.888;2022-12-18T03:04:58;-4.60;99.90
34153;DHT22;20426;48.372;10.888;2022-12-18T03:06:55;-4.70;99.90
34153;DHT22;20426;48.372;10.888;2022-12-18T03:08:21;-4.70;99.90
34153;DHT22;20426;48.372;10.888;2022-12-18T03:08:58;-4.70;99.90
34153;DHT22;20426;48.372;10.888;2022-12-18T03:09:35;-4.70;99.90
34153;DHT22;20426;48.372;10.888;2022-12-18T03:10:09;-4.70;99.90
34153;DHT22;20426;48.372;10.888;2022-12-18T03:11:04;-4.60;99.90
34153;DHT22;20426;48.372;10.888;2022-12-18T03:11:39;-4.60;99.90
34153;DHT22;20426;48.372;10.888;2022-12-18T03:12:34;-4.60;99.90
34153;DHT22;20426;48.372;10.888;2022-12-18T03:13:13;-4.60;99.90
34153;DHT22;20426;48.372;10.888;2022-12-18T03:13:55;-4.70;99.90
34153;DHT22;20426;48.372;10.888;2022-12-18T03:14:30;-4.70;99.90
34153;DHT22;20426;48.372;10.888;2022-12-18T03:15:45;-4.80;99.90
34153;DHT22;20426;48.372;10.888;2022-12-18T03:16:25;-4.80;99.90
34153;DHT22;20426;48.372;10.888;2022-12-18T03:17:00;-4.80;99.90
34153;DHT22;20426;48.372;10.888;2022-12-18T03:17:33;-4.80;99.90
34153;DHT22;20426;48.372;10.888;2022-12-18T03:18:19;-4.80;99.90
34153;DHT22;20426;48.372;10.888;2022-12-18T03:18:56;-4.80;99.90
34153;DHT22;20426;48.372;10.888;2022-12-18T03:19:29;-4.80;99.90
34153;DHT22;20426;48.372;10.888;2022-12-18T03:20:12;-4.80;99.90
34153;DHT22;20426;48.372;10.888;2022-12-18T03:20:45;-4.80;99.90
34153;DHT22;20426;48.372;10.888;2022-12-18T03:21:21;-4.90;99.90
34153;DHT22;20426;48.372;10.888;2022-12-18T03:21:55;-4.90;99.90
34153;DHT22;20426;48.372;10.888;2022-12-18T03:22:28;-4.90;99.90
34153;DHT22;20426;48.372;10.888;2022-12-18T03:23:06;-4.80;99.90
34153;DHT22;20426;48.372;10.888;2022-12-18T03:23:42;-4.80;99.90
34153;DHT22;20426;48.372;10.888;2022-12-18T03:24:15;-4.80;99.90
34153;DHT22;20426;48.372;10.888;2022-12-18T03:24:48;-4.80;99.90
34153;DHT22;20426;48.372;10.888;2022-12-18T03:25:19;-4.80;99.90
34153;DHT22;20426;48.372;10.888;2022-12-18T03:25:52;-4.80;99.90
34153;DHT22;20426;48.372;10.888;2022-12-18T03:26:27;-4.80;99.90
34153;DHT22;20426;48.372;10.888;2022-12-18T03:27:01;-4.80;99.90
34153;DHT22;20426;48.372;10.888;2022-12-18T03:27:33;-4.80;99.90
34153;DHT22;20426;48.372;10.888;2022-12-18T03:28:08;-4.80;99.90
34153;DHT22;20426;48.372;10.888;2022-12-18T03:29:07;-4.80;99.90
34153;DHT22;20426;48.372;10.888;2022-12-18T03:29:40;-4.80;99.90
34153;DHT22;20426;48.372;10.888;2022-12-18T03:30:14;-4.80;99.90
34153;DHT22;20426;48.372;10.888;2022-12-18T03:30:47;-4.90;99.90
34153;DHT22;20426;48.372;10.888;2022-12-18T03:31:22;-4.80;99.90
34153;DHT22;20426;48.372;10.888;2022-12-18T03:32:04;-4.80;99.90
34153;DHT22;20426;48.372;10.888;2022-12-18T03:32:53;-4.80;99.90
34153;DHT22;20426;48.372;10.888;2022-12-18T03:33:47;-4.80;99.90
34153;DHT22;20426;48.372;10.888;2022-12-18T03:34:29;-4.80;99.90
34153;DHT22;20426;48.372;10.888;2022-12-18T03:35:03;-4.70;99.90
34153;DHT22;20426;48.372;10.888;2022-12-18T03:35:39;-4.80;99.90
34153;DHT22;20426;48.372;10.888;2022-12-18T03:36:10;-4.80;99.90
34153;DHT22;20426;48.372;10.888;2022-12-18T03:36:41;-4.70;99.90
34153;DHT22;20426;48.372;10.888;2022-12-18T03:37:11;-4.70;99.90
34153;DHT22;20426;48.372;10.888;2022-12-18T03:37:42;-4.70;99.90
34153;DHT22;20426;48.372;10.888;2022-12-18T03:38:13;-4.70;99.90
34153;DHT22;20426;48.372;10.888;2022-12-18T03:38:44;-4.70;99.90
34153;DHT22;20426;48.372;10.888;2022-12-18T03:39:15;-4.70;99.90
34153;DHT22;20426;48.372;10.888;2022-12-18T03:39:46;-4.70;99.90
34153;DHT22;20426;48.372;10.888;2022-12-18T03:40:16;-4.70;99.90
34153;DHT22;20426;48.372;10.888;2022-12-18T03:40:57;-4.70;99.90
34153;DHT22;20426;48.372;10.888;2022-12-18T03:41:33;-4.70;99.90
34153;DHT22;20426;48.372;10.888;2022-12-18T03:42:19;-4.70;99.90
34153;DHT22;20426;48.372;10.888;2022-12-18T03:43:06;-4.70;99.90
34153;DHT22;20426;48.372;10.888;2022-12-18T03:43:43;-4.70;99.90
34153;DHT22;20426;48.372;10.888;2022-12-18T03:44:55;-4.70;99.90
34153;DHT22;20426;48.372;10.888;2022-12-18T03:45:35;-4.60;99.90
34153;DHT22;20426;48.372;10.888;2022-12-18T03:47:54;-4.70;99.90
34153;DHT22;20426;48.372;10.888;2022-12-18T03:48:32;-4.70;99.90
34153;DHT22;20426;48.372;10.888;2022-12-18T03:49:12;-4.70;99.90
34153;DHT22;20426;48.372;10.888;2022-12-18T03:50:59;-4.60;99.90
34153;DHT22;20426;48.372;10.888;2022-12-18T03:52:12;-4.70;99.90
34153;DHT22;20426;48.372;10.888;2022-12-18T03:54:01;-4.70;99.90
34153;DHT22;20426;48.372;10.888;2022-12-18T03:54:34;-4.70;99.90
34153;DHT22;20426;48.372;10.888;2022-12-18T03:55:07;-4.70;99.90
34153;DHT22;20426;48.372;10.888;2022-12-18T03:55:39;-4.80;99.90
34153;DHT22;20426;48.372;10.888;2022-12-18T03:56:11;-4.80;99.90
34153;DHT22;20426;48.372;10.888;2022-12-18T03:56:49;-4.80;99.90
34153;DHT22;20426;48.372;10.888;2022-12-18T03:57:23;-4.70;99.90
34153;DHT22;20426;48.372;10.888;2022-12-18T03:57:55;-4.70;99.90
34153;DHT22;20426;48.372;10.888;2022-12-18T03:58:27;-4.70;99.90
34153;DHT22;20426;48.372;10.888;2022-12-18T03:59:01;-4.60;99.90
34153;DHT22;20426;48.372;10.888;2022-12-18T03:59:35;-4.70;99.90
34153;DHT22;20426;48.372;10.888;2022-12-18T04:00:11;-4.70;99.90